Terminal Aerodrome Forecast
Issued by NWS

Home | Current Version | Previous Version | Text Only | Print | Product List | Glossary Off
Versions: 1 2 3 4 5 6 7 8 9 10 11 12 13 14 15 16 17 18 19 20 21 22 23 24 25 26 27 28 29 30 31

000
FTUS43 KLOT 041138
TAFDPA
TAF
KDPA 041138Z 0412/0512 VRB04KT P6SM SCT150
     FM042000 VRB04KT P6SM SCT040
     FM042100 08009KT P6SM VCTS BKN040CB
     FM050000 09004KT P6SM SCT250
     FM050600 13004KT P6SM SCT250
     FM050700 VRB03KT P6SM SCT250=

USA.gov is the U.S. government's official web portal to all federal, state and local government web resources and services.